Time;durP1;ratioP1;P1;durP2;ratioP2;P2;SDS_P1;SDS_P2;PMS_P1;PMS_P2;Temp;Humidity;BMP_temperature;BMP_pressure;BME280_temperature;BME280_humidity;BME280_pressure;Samples;Min_cycle;Max_cycle;Signal;HPM_P1;HPM_P2
2023/01/29 00:02:04;;;;;;;4.13;2.38;;;;;;;;;;4979747;28;20038;-72
2023/01/29 00:04:30;;;;;;;3.67;2.47;;;;;;;;;;4981876;28;20019;-73
2023/01/29 00:06:57;;;;;;;6.10;2.30;;;;;;;;;;4980908;28;20049;-73
2023/01/29 00:09:23;;;;;;;7.47;2.97;;;;;;;;;;4990271;28;20076;-72
2023/01/29 00:11:49;;;;;;;4.47;2.33;;;;;;;;;;4981325;28;20037;-72
2023/01/29 00:14:15;;;;;;;5.07;2.42;;;;;;;;;;4984234;28;20022;-73
2023/01/29 00:16:41;;;;;;;3.40;2.03;;;;;;;;;;4982336;28;20014;-73
2023/01/29 00:19:08;;;;;;;4.80;2.50;;;;;;;;;;4980880;28;20379;-72
2023/01/29 00:21:34;;;;;;;5.20;2.42;;;;;;;;;;4982337;28;20114;-73
2023/01/29 00:24:00;;;;;;;3.83;2.42;;;;;;;;;;4981437;28;20664;-73
2023/01/29 00:26:27;;;;;;;3.85;2.45;;;;;;;;;;4983979;28;20479;-73
2023/01/29 00:28:55;;;;;;;5.00;2.50;;;;;;;;;;4981785;28;20053;-72
2023/01/29 00:31:23;;;;;;;4.03;2.42;;;;;;;;;;4982159;28;20018;-73
2023/01/29 00:33:49;;;;;;;3.08;1.90;;;;;;;;;;4977102;28;20041;-73
2023/01/29 00:36:17;;;;;;;5.93;2.30;;;;;;;;;;4986052;28;20054;-72
2023/01/29 00:38:43;;;;;;;5.50;2.40;;;;;;;;;;4981630;28;20034;-73
2023/01/29 00:46:40;;;;;;;5.45;2.60;;;;;;;;;;4982357;28;20280;-73
2023/01/29 00:49:07;;;;;;;2.80;2.20;;;;;;;;;;4981261;28;20027;-73
2023/01/29 00:51:33;;;;;;;3.80;2.38;;;;;;;;;;4982969;28;20034;-73
2023/01/29 00:54:00;;;;;;;3.63;2.10;;;;;;;;;;4980654;28;20035;-73
2023/01/29 00:56:27;;;;;;;5.75;2.25;;;;;;;;;;4984801;28;20493;-73
2023/01/29 00:58:53;;;;;;;4.70;2.35;;;;;;;;;;4981424;28;20022;-73
2023/01/29 01:03:04;;;;;;;4.22;2.67;;;;;;;;;;4981647;28;20041;-73
2023/01/29 01:04:06;;;;;;;5.15;2.72;;;;;;;;;;4975959;28;20105;-73
2023/01/29 01:06:32;;;;;;;4.25;2.28;;;;;;;;;;4976582;28;20524;-73
2023/01/29 01:11:43;;;;;;;3.20;2.00;;;;;;;;;;4977489;28;20065;-73
2023/01/29 01:14:09;;;;;;;3.83;2.30;;;;;;;;;;4982458;28;20042;-73
2023/01/29 01:16:35;;;;;;;3.03;2.10;;;;;;;;;;4981610;28;20356;-73
2023/01/29 01:19:03;;;;;;;3.83;2.20;;;;;;;;;;4981247;28;20027;-73
2023/01/29 01:21:29;;;;;;;3.25;2.03;;;;;;;;;;4983864;28;20505;-73
2023/01/29 01:23:55;;;;;;;3.63;2.50;;;;;;;;;;4972629;28;20033;-72
2023/01/29 01:26:21;;;;;;;4.30;2.47;;;;;;;;;;4978796;28;20029;-72
2023/01/29 01:28:48;;;;;;;3.92;1.98;;;;;;;;;;4982841;28;20513;-72
2023/01/29 01:31:14;;;;;;;3.40;2.47;;;;;;;;;;4981204;28;20494;-72
2023/01/29 01:33:40;;;;;;;7.65;2.60;;;;;;;;;;4982585;28;20018;-72
2023/01/29 01:36:08;;;;;;;2.90;2.20;;;;;;;;;;4981723;28;20023;-72
2023/01/29 01:38:43;;;;;;;2.88;2.30;;;;;;;;;;4984000;28;20019;-72
2023/01/29 01:41:09;;;;;;;5.38;2.50;;;;;;;;;;4980229;28;20038;-72
2023/01/29 01:43:54;;;;;;;3.22;2.25;;;;;;;;;;4982239;28;20023;-72
2023/01/29 01:46:21;;;;;;;3.30;2.30;;;;;;;;;;4982761;28;20030;-72
2023/01/29 01:48:51;;;;;;;3.08;2.03;;;;;;;;;;4976584;28;20039;-72
2023/01/29 01:51:18;;;;;;;2.88;2.10;;;;;;;;;;4983392;28;20084;-72
2023/01/29 01:53:54;;;;;;;6.47;2.40;;;;;;;;;;4983234;28;20030;-72
2023/01/29 01:56:27;;;;;;;3.40;2.30;;;;;;;;;;4983594;28;20071;-72
2023/01/29 01:58:57;;;;;;;3.85;2.03;;;;;;;;;;4984020;28;20095;-72
2023/01/29 02:01:28;;;;;;;3.78;2.28;;;;;;;;;;4980007;28;20052;-72
2023/01/29 02:09:33;;;;;;;3.50;2.50;;;;;;;;;;4979876;28;20325;-72
2023/01/29 02:12:00;;;;;;;4.47;2.10;;;;;;;;;;4978970;28;20031;-72
2023/01/29 02:14:26;;;;;;;4.90;2.03;;;;;;;;;;4978571;28;20038;-72
2023/01/29 02:16:53;;;;;;;4.38;2.50;;;;;;;;;;4979575;28;20018;-72
2023/01/29 02:19:37;;;;;;;3.35;1.98;;;;;;;;;;4980483;28;20066;-73
2023/01/29 02:22:27;;;;;;;5.10;2.40;;;;;;;;;;4979976;28;20416;-72
2023/01/29 02:25:10;;;;;;;4.25;2.13;;;;;;;;;;4983213;28;20030;-72
2023/01/29 02:27:37;;;;;;;3.38;2.00;;;;;;;;;;4979985;28;20033;-72
2023/01/29 02:30:05;;;;;;;3.35;1.92;;;;;;;;;;4980043;28;20022;-73
2023/01/29 02:32:53;;;;;;;2.95;2.10;;;;;;;;;;4980319;28;20157;-72
2023/01/29 02:35:28;;;;;;;4.75;1.90;;;;;;;;;;4980672;28;20023;-72
2023/01/29 02:37:54;;;;;;;4.50;2.67;;;;;;;;;;4977732;28;20030;-73
2023/01/29 02:40:33;;;;;;;4.38;1.90;;;;;;;;;;4975756;28;20472;-73
2023/01/29 02:42:59;;;;;;;2.78;1.95;;;;;;;;;;4971268;28;20479;-73
2023/01/29 02:45:44;;;;;;;4.75;2.33;;;;;;;;;;4975867;28;20026;-72
2023/01/29 02:48:14;;;;;;;5.50;2.70;;;;;;;;;;4974627;28;20030;-73
2023/01/29 02:50:46;;;;;;;2.70;1.83;;;;;;;;;;4976973;28;20796;-73
2023/01/29 02:53:12;;;;;;;;;;;;;;;;;;4978651;28;20601;-73
2023/01/29 02:55:38;;;;;;;3.53;2.17;;;;;;;;;;4980574;28;19992;-73
2023/01/29 02:58:40;;;;;;;3.78;2.38;;;;;;;;;;4973339;28;20018;-73
2023/01/29 03:01:10;;;;;;;4.25;2.40;;;;;;;;;;4934236;28;20137;-73
2023/01/29 03:03:49;;;;;;;3.35;2.08;;;;;;;;;;4971881;28;20682;-73
2023/01/29 03:06:21;;;;;;;4.85;2.30;;;;;;;;;;4976499;28;20562;-72
2023/01/29 03:08:48;;;;;;;;;;;;;;;;;;4978457;28;20091;-72
2023/01/29 03:11:16;;;;;;;4.93;2.50;;;;;;;;;;4976757;28;19916;-72
2023/01/29 03:13:48;;;;;;;7.78;2.90;;;;;;;;;;4983068;28;20041;-72
2023/01/29 03:16:23;;;;;;;4.50;2.22;;;;;;;;;;4974568;28;20734;-73
2023/01/29 03:18:51;;;;;;;4.85;2.45;;;;;;;;;;4979538;28;20030;-73
2023/01/29 03:32:23;;;;;;;3.60;2.03;;;;;;;;;;4980531;28;20062;-72
2023/01/29 03:34:52;;;;;;;2.97;1.95;;;;;;;;;;4977559;28;20026;-72
2023/01/29 03:37:26;;;;;;;2.88;1.92;;;;;;;;;;4978268;28;20023;-73
2023/01/29 03:39:54;;;;;;;3.58;2.30;;;;;;;;;;4979984;28;20022;-72
2023/01/29 03:42:28;;;;;;;3.80;2.83;;;;;;;;;;4978911;28;20070;-73
2023/01/29 03:45:30;;;;;;;4.68;2.97;;;;;;;;;;4979092;28;20565;-73
2023/01/29 03:48:04;;;;;;;4.25;2.30;;;;;;;;;;4919597;29;20066;-73
2023/01/29 03:50:49;;;;;;;3.15;1.92;;;;;;;;;;4969760;28;20049;-73
2023/01/29 03:53:38;;;;;;;3.83;2.45;;;;;;;;;;4976704;28;20035;-73
2023/01/29 03:56:12;;;;;;;4.55;3.38;;;;;;;;;;4978291;28;20187;-73
2023/01/29 03:58:38;;;;;;;3.08;2.10;;;;;;;;;;4983559;28;20097;-73
2023/01/29 04:01:10;;;;;;;2.80;2.00;;;;;;;;;;4977746;28;20026;-73
2023/01/29 04:03:36;;;;;;;;;;;;;;;;;;4983019;28;20042;-73
2023/01/29 04:06:31;;;;;;;5.80;2.45;;;;;;;;;;4974856;28;19922;-72
2023/01/29 04:09:03;;;;;;;2.60;1.80;;;;;;;;;;4967386;28;20788;-72
2023/01/29 04:11:30;;;;;;;4.85;2.30;;;;;;;;;;4979171;28;20027;-73
2023/01/29 04:13:57;;;;;;;2.70;2.00;;;;;;;;;;4974709;28;20022;-72
2023/01/29 04:16:26;;;;;;;4.38;2.40;;;;;;;;;;4980269;28;20026;-73
2023/01/29 04:18:53;;;;;;;3.88;1.90;;;;;;;;;;4977127;28;20034;-73
2023/01/29 04:21:19;;;;;;;3.20;2.05;;;;;;;;;;4978696;28;20029;-72
2023/01/29 04:23:46;;;;;;;4.43;2.80;;;;;;;;;;4975981;28;20137;-73
2023/01/29 04:26:29;;;;;;;5.47;2.28;;;;;;;;;;4978029;28;20044;-73
2023/01/29 04:29:05;;;;;;;4.57;2.63;;;;;;;;;;4975668;28;20041;-73
2023/01/29 04:31:35;;;;;;;3.47;2.22;;;;;;;;;;4972496;28;20022;-72
2023/01/29 04:34:30;;;;;;;3.42;1.85;;;;;;;;;;4976057;28;20027;-72
2023/01/29 04:37:06;;;;;;;4.35;2.70;;;;;;;;;;4943401;28;20493;-73
2023/01/29 04:39:49;;;;;;;4.28;2.40;;;;;;;;;;4980489;28;20567;-72
2023/01/29 04:42:29;;;;;;;5.03;2.28;;;;;;;;;;4980933;28;20618;-72
2023/01/29 04:44:59;;;;;;;3.88;2.25;;;;;;;;;;4977251;28;20058;-72
2023/01/29 04:47:35;;;;;;;4.50;2.17;;;;;;;;;;4974921;28;20501;-72
2023/01/29 04:50:08;;;;;;;4.82;2.45;;;;;;;;;;4979781;28;20076;-72
2023/01/29 04:52:37;;;;;;;3.65;2.30;;;;;;;;;;4981216;28;20038;-72
2023/01/29 04:55:03;;;;;;;5.13;2.38;;;;;;;;;;4974614;28;20552;-72
2023/01/29 04:57:48;;;;;;;4.20;2.45;;;;;;;;;;4976339;28;20678;-72
2023/01/29 05:00:24;;;;;;;3.63;2.28;;;;;;;;;;4978173;28;20089;-72
2023/01/29 05:02:51;;;;;;;3.65;2.10;;;;;;;;;;4980574;28;20585;-72
2023/01/29 05:05:19;;;;;;;4.82;2.60;;;;;;;;;;4972052;28;20050;-73
2023/01/29 05:07:46;;;;;;;4.65;2.63;;;;;;;;;;4974654;28;20117;-73
2023/01/29 05:10:12;;;;;;;4.28;2.60;;;;;;;;;;4980021;28;20066;-72
2023/01/29 05:12:40;;;;;;;3.30;2.40;;;;;;;;;;4974959;28;20039;-72
2023/01/29 05:15:12;;;;;;;5.13;2.10;;;;;;;;;;4976043;28;20154;-73
2023/01/29 05:17:38;;;;;;;;;;;;;;;;;;4978129;28;20084;-73
2023/01/29 05:20:04;;;;;;;4.78;2.72;;;;;;;;;;4980462;28;20349;-73
2023/01/29 05:22:31;;;;;;;5.57;2.65;;;;;;;;;;4973752;28;20079;-73
2023/01/29 05:24:57;;;;;;;3.75;2.47;;;;;;;;;;4975735;28;20654;-73
2023/01/29 05:30:16;;;;;;;4.00;2.42;;;;;;;;;;4971195;28;20042;-72
2023/01/29 05:32:42;;;;;;;4.03;2.40;;;;;;;;;;4976728;28;20092;-73
2023/01/29 05:35:08;;;;;;;3.75;2.60;;;;;;;;;;4977640;28;20034;-72
2023/01/29 05:37:34;;;;;;;3.92;2.28;;;;;;;;;;4978472;28;20101;-72
2023/01/29 05:40:00;;;;;;;3.85;2.70;;;;;;;;;;4972525;28;20152;-72
2023/01/29 05:42:27;;;;;;;4.75;2.53;;;;;;;;;;4976123;28;20050;-73
2023/01/29 05:44:53;;;;;;;4.03;2.30;;;;;;;;;;4977343;28;20023;-73
2023/01/29 05:47:19;;;;;;;3.45;2.17;;;;;;;;;;4974115;28;20027;-73
2023/01/29 05:49:46;;;;;;;2.97;2.17;;;;;;;;;;4975710;28;20026;-72
2023/01/29 05:52:12;;;;;;;3.85;2.30;;;;;;;;;;4976253;28;20149;-73
2023/01/29 05:54:38;;;;;;;4.88;2.38;;;;;;;;;;4975878;28;20036;-73
2023/01/29 05:57:04;;;;;;;3.25;2.33;;;;;;;;;;4972313;28;20072;-72
2023/01/29 05:59:30;;;;;;;3.28;2.20;;;;;;;;;;4978083;28;20645;-73
2023/01/29 06:01:57;;;;;;;3.00;2.17;;;;;;;;;;4974205;28;20054;-72
2023/01/29 06:04:23;;;;;;;4.60;2.50;;;;;;;;;;4975866;28;20022;-73
2023/01/29 06:06:49;;;;;;;6.38;2.30;;;;;;;;;;4972094;28;20133;-72
2023/01/29 06:09:16;;;;;;;5.45;2.08;;;;;;;;;;4972031;28;20022;-73
2023/01/29 06:11:42;;;;;;;3.42;2.50;;;;;;;;;;4973842;28;20028;-72
2023/01/29 06:14:08;;;;;;;3.33;2.47;;;;;;;;;;4975678;28;20057;-73
2023/01/29 06:16:34;;;;;;;3.58;2.58;;;;;;;;;;4976574;28;20022;-73
2023/01/29 06:19:00;;;;;;;3.53;2.40;;;;;;;;;;4976116;28;20032;-72
2023/01/29 06:21:26;;;;;;;4.90;2.25;;;;;;;;;;4977733;28;20030;-73
2023/01/29 06:23:53;;;;;;;4.35;2.17;;;;;;;;;;4974878;28;20031;-73
2023/01/29 06:26:19;;;;;;;4.13;2.35;;;;;;;;;;4976903;28;20024;-72
2023/01/29 06:28:48;;;;;;;5.65;2.45;;;;;;;;;;4973079;28;20038;-72
2023/01/29 06:31:14;;;;;;;3.03;2.05;;;;;;;;;;4977113;28;20073;-73
2023/01/29 06:33:40;;;;;;;3.55;2.15;;;;;;;;;;4976391;28;20058;-73
2023/01/29 06:36:06;;;;;;;4.97;2.30;;;;;;;;;;4975027;28;20028;-73
2023/01/29 06:38:33;;;;;;;4.47;2.70;;;;;;;;;;4975666;28;20372;-72
2023/01/29 06:40:59;;;;;;;4.05;2.40;;;;;;;;;;4973454;28;20514;-73
2023/01/29 06:43:25;;;;;;;6.15;2.55;;;;;;;;;;4972674;28;20117;-72
2023/01/29 06:45:51;;;;;;;3.58;2.15;;;;;;;;;;4973020;28;20747;-73
2023/01/29 06:48:18;;;;;;;4.28;2.10;;;;;;;;;;4977602;28;20057;-73
2023/01/29 06:50:44;;;;;;;3.25;2.30;;;;;;;;;;4974417;28;20435;-72
2023/01/29 06:53:10;;;;;;;3.55;2.50;;;;;;;;;;4974750;28;20651;-73
2023/01/29 06:55:37;;;;;;;2.95;2.03;;;;;;;;;;4973950;28;20041;-73
2023/01/29 06:58:06;;;;;;;3.60;2.63;;;;;;;;;;4976018;28;20073;-73
2023/01/29 07:00:33;;;;;;;4.10;3.08;;;;;;;;;;4979268;28;20495;-73
2023/01/29 07:02:59;;;;;;;5.38;2.97;;;;;;;;;;4968553;28;20402;-73
2023/01/29 07:05:25;;;;;;;4.53;3.22;;;;;;;;;;4974894;28;20796;-73
2023/01/29 07:07:51;;;;;;;5.40;3.25;;;;;;;;;;4970672;28;20789;-73
2023/01/29 07:10:17;;;;;;;5.10;2.53;;;;;;;;;;4976341;28;20378;-72
2023/01/29 07:12:43;;;;;;;4.80;3.25;;;;;;;;;;4978377;28;20085;-72
2023/01/29 07:15:11;;;;;;;3.90;2.47;;;;;;;;;;4975703;28;20014;-72
2023/01/29 07:17:37;;;;;;;3.92;2.72;;;;;;;;;;4972608;28;20097;-73
2023/01/29 07:20:04;;;;;;;4.72;2.70;;;;;;;;;;4975468;28;20023;-73
2023/01/29 07:22:31;;;;;;;5.97;3.00;;;;;;;;;;4973521;28;20518;-73
2023/01/29 07:24:57;;;;;;;6.63;4.53;;;;;;;;;;4973523;28;20081;-72
2023/01/29 07:27:23;;;;;;;13.20;4.95;;;;;;;;;;4973824;28;20586;-73
2023/01/29 07:29:49;;;;;;;7.05;4.38;;;;;;;;;;4973232;28;20077;-73
2023/01/29 07:32:15;;;;;;;5.95;4.20;;;;;;;;;;4978151;28;20054;-73
2023/01/29 07:34:41;;;;;;;5.60;3.55;;;;;;;;;;4972261;28;20042;-73
2023/01/29 07:37:08;;;;;;;8.00;4.63;;;;;;;;;;4969628;28;20116;-72
2023/01/29 07:39:34;;;;;;;6.82;4.30;;;;;;;;;;4971149;28;20386;-73
2023/01/29 07:42:01;;;;;;;10.63;5.57;;;;;;;;;;4974543;28;20841;-73
2023/01/29 07:44:27;;;;;;;10.98;6.03;;;;;;;;;;4975942;28;20561;-73
2023/01/29 07:46:53;;;;;;;11.98;5.70;;;;;;;;;;4971744;28;20495;-72
2023/01/29 07:49:19;;;;;;;7.95;5.40;;;;;;;;;;4973903;28;20030;-73
2023/01/29 07:51:45;;;;;;;9.75;5.75;;;;;;;;;;4975455;28;20022;-73
2023/01/29 07:54:11;;;;;;;8.77;5.80;;;;;;;;;;4973743;28;20042;-72
2023/01/29 07:56:38;;;;;;;7.05;5.18;;;;;;;;;;4974013;28;20034;-72
2023/01/29 07:59:04;;;;;;;9.18;5.10;;;;;;;;;;4974977;28;20027;-73
2023/01/29 08:01:30;;;;;;;7.97;4.78;;;;;;;;;;4978094;28;20022;-73
2023/01/29 08:03:56;;;;;;;6.95;4.82;;;;;;;;;;4974319;28;20133;-73
2023/01/29 08:06:22;;;;;;;8.43;4.32;;;;;;;;;;4972032;28;20049;-73
2023/01/29 08:08:48;;;;;;;8.57;4.85;;;;;;;;;;4971506;28;20026;-73
2023/01/29 08:11:15;;;;;;;8.63;5.57;;;;;;;;;;4976903;28;20025;-73
2023/01/29 08:13:41;;;;;;;8.10;5.72;;;;;;;;;;4977217;28;20248;-72
2023/01/29 08:16:07;;;;;;;9.85;5.00;;;;;;;;;;4980675;28;20077;-72
2023/01/29 08:18:34;;;;;;;7.97;5.32;;;;;;;;;;4982083;28;20022;-72
2023/01/29 08:21:00;;;;;;;7.43;4.93;;;;;;;;;;4981804;28;20622;-72
2023/01/29 08:23:26;;;;;;;7.32;5.13;;;;;;;;;;4981410;28;20109;-73
2023/01/29 08:25:53;;;;;;;8.23;5.82;;;;;;;;;;4979990;28;20018;-72
2023/01/29 08:28:19;;;;;;;9.40;6.00;;;;;;;;;;4976691;28;20053;-72
2023/01/29 08:30:45;;;;;;;10.73;6.75;;;;;;;;;;4981910;28;20022;-72
2023/01/29 08:33:11;;;;;;;10.82;7.32;;;;;;;;;;4977167;28;20034;-72
2023/01/29 08:35:37;;;;;;;9.77;6.88;;;;;;;;;;4980192;28;20037;-72
2023/01/29 08:38:04;;;;;;;11.60;6.63;;;;;;;;;;4974900;28;20765;-72
2023/01/29 08:40:32;;;;;;;10.65;7.57;;;;;;;;;;4980064;28;20026;-72
2023/01/29 08:42:59;;;;;;;10.35;6.78;;;;;;;;;;4977614;28;20057;-72
2023/01/29 08:45:25;;;;;;;10.25;7.10;;;;;;;;;;4977120;28;20812;-73
2023/01/29 08:47:51;;;;;;;9.90;6.80;;;;;;;;;;4976958;28;20026;-72
2023/01/29 08:50:17;;;;;;;10.27;6.90;;;;;;;;;;4978542;28;20357;-72
2023/01/29 08:52:44;;;;;;;9.48;6.40;;;;;;;;;;4979567;28;20026;-73
2023/01/29 08:55:10;;;;;;;12.52;7.03;;;;;;;;;;4973476;28;20026;-72
2023/01/29 08:57:37;;;;;;;9.70;6.72;;;;;;;;;;4979643;28;20026;-72
2023/01/29 09:00:04;;;;;;;11.05;6.43;;;;;;;;;;4978160;28;20030;-72
2023/01/29 09:02:30;;;;;;;6.88;4.45;;;;;;;;;;4976495;28;20421;-72
2023/01/29 09:04:56;;;;;;;5.82;3.70;;;;;;;;;;4977842;28;20108;-73
2023/01/29 09:07:22;;;;;;;4.43;2.90;;;;;;;;;;4977204;28;20041;-73
2023/01/29 09:09:48;;;;;;;4.15;2.88;;;;;;;;;;4978933;28;20765;-72
2023/01/29 09:12:15;;;;;;;4.68;3.05;;;;;;;;;;4976489;28;20096;-73
2023/01/29 09:14:41;;;;;;;4.15;3.10;;;;;;;;;;4979109;28;20034;-73
2023/01/29 09:17:07;;;;;;;4.05;3.03;;;;;;;;;;4976565;28;20027;-72
2023/01/29 09:19:33;;;;;;;4.85;2.63;;;;;;;;;;4979774;28;20067;-72
2023/01/29 09:21:59;;;;;;;4.65;3.25;;;;;;;;;;4976870;28;20046;-72
2023/01/29 09:24:25;;;;;;;4.90;2.70;;;;;;;;;;4976630;28;20027;-73
2023/01/29 09:26:51;;;;;;;4.38;2.78;;;;;;;;;;4974943;28;20027;-73
2023/01/29 09:29:17;;;;;;;6.57;3.47;;;;;;;;;;4977687;28;20097;-72
2023/01/29 09:31:44;;;;;;;5.78;3.45;;;;;;;;;;4975570;28;20015;-72
2023/01/29 09:34:10;;;;;;;6.05;3.40;;;;;;;;;;4979466;28;20027;-72
2023/01/29 09:36:36;;;;;;;6.32;3.10;;;;;;;;;;4980320;28;20019;-70
2023/01/29 09:39:02;;;;;;;4.68;2.75;;;;;;;;;;4980115;28;20027;-69
2023/01/29 09:41:50;;;;;;;4.53;2.53;;;;;;;;;;4977057;28;20104;-73
2023/01/29 09:44:36;;;;;;;4.28;2.67;;;;;;;;;;4974534;28;20769;-71
2023/01/29 09:47:04;;;;;;;4.22;2.60;;;;;;;;;;4948304;28;20035;-70
2023/01/29 09:49:34;;;;;;;3.92;2.55;;;;;;;;;;4977783;28;20488;-69
2023/01/29 09:52:06;;;;;;;4.57;2.60;;;;;;;;;;4976881;28;20475;-69
2023/01/29 09:54:35;;;;;;;6.47;3.30;;;;;;;;;;4978500;28;20022;-72
2023/01/29 09:57:01;;;;;;;6.78;3.92;;;;;;;;;;4978433;28;20030;-71
2023/01/29 09:59:29;;;;;;;6.45;3.47;;;;;;;;;;4978154;28;20037;-72
2023/01/29 10:02:11;;;;;;;4.60;3.10;;;;;;;;;;4979751;28;20438;-70
2023/01/29 10:04:37;;;;;;;6.32;2.88;;;;;;;;;;4977467;28;20044;-70
2023/01/29 10:07:22;;;;;;;7.18;2.92;;;;;;;;;;4979152;28;20030;-72
2023/01/29 10:10:14;;;;;;;5.03;2.47;;;;;;;;;;4973508;28;20721;-71
2023/01/29 10:12:43;;;;;;;3.85;2.50;;;;;;;;;;4973187;28;20092;-71
2023/01/29 10:15:22;;;;;;;5.35;3.05;;;;;;;;;;4973696;28;20082;-72
2023/01/29 10:17:57;;;;;;;4.18;2.75;;;;;;;;;;4975411;28;20110;-71
2023/01/29 10:20:23;;;;;;;5.10;2.67;;;;;;;;;;4977701;28;20065;-73
2023/01/29 10:23:02;;;;;;;3.35;2.38;;;;;;;;;;4979027;28;20034;-74
2023/01/29 10:25:28;;;;;;;3.20;2.30;;;;;;;;;;4978699;28;20045;-74
2023/01/29 10:27:56;;;;;;;3.00;2.15;;;;;;;;;;4979150;28;20505;-75
2023/01/29 10:30:26;;;;;;;2.75;2.10;;;;;;;;;;4976274;28;20035;-74
2023/01/29 10:32:52;;;;;;;3.65;2.28;;;;;;;;;;4973328;28;20042;-74
2023/01/29 10:35:27;;;;;;;4.57;2.72;;;;;;;;;;4975197;28;20019;-74
2023/01/29 10:37:54;;;;;;;4.97;3.05;;;;;;;;;;4976161;28;20471;-74
2023/01/29 10:40:26;;;;;;;5.47;2.85;;;;;;;;;;4973719;28;20110;-74
2023/01/29 10:43:18;;;;;;;3.40;2.47;;;;;;;;;;4975303;28;20041;-74
2023/01/29 10:46:03;;;;;;;3.35;2.58;;;;;;;;;;4962611;28;20513;-74
2023/01/29 10:48:30;;;;;;;4.72;3.05;;;;;;;;;;4979291;28;20030;-74
2023/01/29 10:51:06;;;;;;;3.60;2.90;;;;;;;;;;4976716;28;20034;-74
2023/01/29 10:53:35;;;;;;;3.88;2.67;;;;;;;;;;4970392;28;20022;-74
2023/01/29 10:56:08;;;;;;;4.07;3.10;;;;;;;;;;4974879;28;20031;-74
2023/01/29 10:58:34;;;;;;;6.22;2.70;;;;;;;;;;4977555;28;20022;-74
2023/01/29 11:01:00;;;;;;;4.43;3.00;;;;;;;;;;4973204;28;20034;-74
2023/01/29 11:03:28;;;;;;;4.70;3.22;;;;;;;;;;4978150;28;20037;-74
2023/01/29 11:06:00;;;;;;;4.90;3.33;;;;;;;;;;4970975;28;20046;-75
2023/01/29 11:08:31;;;;;;;5.70;3.40;;;;;;;;;;4978206;28;20042;-74
2023/01/29 11:10:57;;;;;;;4.78;3.10;;;;;;;;;;4972659;28;20035;-74
2023/01/29 11:13:26;;;;;;;5.80;3.10;;;;;;;;;;4972870;28;20081;-74
2023/01/29 11:15:52;;;;;;;3.22;2.67;;;;;;;;;;4976078;28;20023;-74
2023/01/29 11:18:18;;;;;;;3.05;2.60;;;;;;;;;;4978103;28;20030;-74
2023/01/29 11:20:45;;;;;;;3.95;2.85;;;;;;;;;;4980729;28;20037;-73
2023/01/29 11:23:24;;;;;;;5.10;3.00;;;;;;;;;;4973595;28;20035;-74
2023/01/29 11:25:54;;;;;;;4.28;3.03;;;;;;;;;;4975725;28;20018;-74
2023/01/29 11:28:39;;;;;;;5.90;3.00;;;;;;;;;;4974065;28;20399;-73
2023/01/29 11:31:19;;;;;;;3.63;2.55;;;;;;;;;;4972036;28;20101;-73
2023/01/29 11:33:45;;;;;;;3.72;3.00;;;;;;;;;;4977560;28;20054;-74
2023/01/29 11:36:29;;;;;;;4.90;2.92;;;;;;;;;;4974477;28;20038;-78
2023/01/29 11:39:12;;;;;;;5.72;3.65;;;;;;;;;;4971163;28;20108;-78
2023/01/29 11:41:55;;;;;;;4.53;3.08;;;;;;;;;;4975598;28;20103;-75
2023/01/29 11:44:35;;;;;;;4.45;2.90;;;;;;;;;;4967574;28;20620;-73
2023/01/29 11:47:12;;;;;;;3.30;2.80;;;;;;;;;;4970330;28;20027;-72
2023/01/29 11:49:39;;;;;;;4.63;3.20;;;;;;;;;;4979289;28;20050;-72
2023/01/29 11:52:09;;;;;;;10.00;3.63;;;;;;;;;;4976399;28;20695;-73
2023/01/29 11:54:43;;;;;;;5.47;3.13;;;;;;;;;;4977883;28;20133;-72
2023/01/29 11:57:30;;;;;;;5.82;3.38;;;;;;;;;;4976318;28;20030;-73
2023/01/29 11:59:58;;;;;;;4.18;3.20;;;;;;;;;;4976553;28;20084;-71
2023/01/29 12:02:34;;;;;;;4.88;3.22;;;;;;;;;;4974548;28;20034;-72
2023/01/29 12:05:05;;;;;;;6.03;3.72;;;;;;;;;;4977465;28;20042;-71
2023/01/29 12:07:32;;;;;;;3.80;2.73;;;;;;;;;;4974017;28;20494;-72
2023/01/29 12:09:59;;;;;;;4.30;3.05;;;;;;;;;;4975363;28;20329;-72
2023/01/29 12:12:34;;;;;;;4.18;3.38;;;;;;;;;;4976914;28;20143;-73
2023/01/29 12:15:18;;;;;;;5.68;3.40;;;;;;;;;;4976768;28;20030;-73
2023/01/29 12:17:48;;;;;;;3.20;2.53;;;;;;;;;;4977274;28;20027;-72
2023/01/29 12:20:16;;;;;;;4.68;3.00;;;;;;;;;;4976630;28;20535;-72
2023/01/29 12:22:51;;;;;;;5.60;3.83;;;;;;;;;;4981485;28;20536;-72
2023/01/29 12:25:20;;;;;;;6.82;3.53;;;;;;;;;;4974424;28;20394;-72
2023/01/29 12:27:49;;;;;;;4.82;3.20;;;;;;;;;;4977735;28;20116;-72
2023/01/29 12:30:24;;;;;;;4.07;3.03;;;;;;;;;;4976291;28;20441;-72
2023/01/29 12:33:22;;;;;;;5.25;2.97;;;;;;;;;;4973622;28;20026;-72
2023/01/29 12:36:01;;;;;;;4.75;3.45;;;;;;;;;;4967470;28;20534;-72
2023/01/29 12:38:28;;;;;;;5.75;3.22;;;;;;;;;;4977844;28;20045;-70
2023/01/29 12:41:05;;;;;;;5.13;3.58;;;;;;;;;;4974273;28;20054;-73
2023/01/29 12:43:46;;;;;;;5.45;3.60;;;;;;;;;;4973431;28;20046;-73
2023/01/29 12:46:25;;;;;;;5.22;3.67;;;;;;;;;;4973404;28;20621;-70
2023/01/29 12:48:52;;;;;;;11.75;7.78;;;;;;;;;;4973472;28;20072;-72
2023/01/29 12:51:20;;;;;;;15.60;10.27;;;;;;;;;;4972901;28;20034;-69
2023/01/29 12:53:50;;;;;;;10.27;6.55;;;;;;;;;;4972850;28;20080;-73
2023/01/29 12:56:22;;;;;;;8.77;5.60;;;;;;;;;;4979552;28;20037;-73
2023/01/29 12:58:50;;;;;;;8.25;5.93;;;;;;;;;;4979888;28;20068;-71
2023/01/29 13:01:20;;;;;;;8.57;5.97;;;;;;;;;;4978391;28;20041;-70
2023/01/29 13:03:47;;;;;;;8.63;5.35;;;;;;;;;;4978285;28;20034;-76
2023/01/29 13:06:16;;;;;;;13.35;7.43;;;;;;;;;;4976470;28;20198;-73
2023/01/29 13:08:50;;;;;;;12.20;7.53;;;;;;;;;;4971680;28;20109;-71
2023/01/29 13:11:26;;;;;;;6.80;4.53;;;;;;;;;;4979410;28;20489;-74
2023/01/29 13:13:54;;;;;;;13.88;9.02;;;;;;;;;;4972877;28;20815;-70
2023/01/29 13:16:41;;;;;;;10.27;6.18;;;;;;;;;;4977314;28;20053;-72
2023/01/29 13:19:26;;;;;;;6.15;4.53;;;;;;;;;;4975026;28;20018;-69
2023/01/29 13:21:53;;;;;;;4.85;3.83;;;;;;;;;;4974204;28;20043;-69
2023/01/29 13:24:21;;;;;;;5.85;4.45;;;;;;;;;;4974365;28;20073;-69
2023/01/29 13:26:48;;;;;;;5.43;3.53;;;;;;;;;;4973135;28;20026;-71
2023/01/29 13:29:25;;;;;;;4.43;3.17;;;;;;;;;;4977337;28;20412;-70
2023/01/29 13:31:55;;;;;;;4.53;3.33;;;;;;;;;;4974037;28;20011;-70
2023/01/29 13:34:44;;;;;;;4.60;3.47;;;;;;;;;;4974336;28;20084;-70
2023/01/29 13:37:12;;;;;;;4.22;3.45;;;;;;;;;;4967064;28;20044;-70
2023/01/29 13:39:46;;;;;;;3.97;3.03;;;;;;;;;;4974201;28;20089;-70
2023/01/29 13:42:35;;;;;;;4.03;2.95;;;;;;;;;;4976241;28;20053;-70
2023/01/29 13:45:02;;;;;;;4.20;3.50;;;;;;;;;;4967441;28;20037;-69
2023/01/29 13:47:30;;;;;;;3.78;3.17;;;;;;;;;;4974059;28;20034;-70
2023/01/29 13:50:05;;;;;;;3.85;3.15;;;;;;;;;;4974027;28;20039;-70
2023/01/29 13:52:38;;;;;;;7.13;3.92;;;;;;;;;;4972613;28;20030;-70
2023/01/29 13:55:13;;;;;;;7.40;4.55;;;;;;;;;;4976989;28;20034;-70
2023/01/29 13:57:43;;;;;;;6.55;5.28;;;;;;;;;;4972548;28;20222;-70
2023/01/29 14:00:29;;;;;;;6.45;4.45;;;;;;;;;;4977657;28;20469;-71
2023/01/29 14:03:10;;;;;;;5.85;4.30;;;;;;;;;;4964727;28;20097;-70
2023/01/29 14:05:43;;;;;;;4.70;3.60;;;;;;;;;;4973954;28;20046;-71
2023/01/29 14:08:09;;;;;;;10.35;3.58;;;;;;;;;;4974631;28;20034;-71
2023/01/29 14:10:36;;;;;;;7.70;3.65;;;;;;;;;;4972201;28;20072;-71
2023/01/29 14:13:17;;;;;;;4.05;3.10;;;;;;;;;;4977099;28;20026;-70
2023/01/29 14:16:03;;;;;;;7.65;2.70;;;;;;;;;;4969369;28;20062;-71
2023/01/29 14:18:34;;;;;;;3.63;3.13;;;;;;;;;;4975913;28;20069;-74
2023/01/29 14:21:00;;;;;;;3.40;2.85;;;;;;;;;;4977240;28;20034;-72
2023/01/29 14:23:40;;;;;;;3.55;2.90;;;;;;;;;;4973635;28;20038;-71
2023/01/29 14:26:25;;;;;;;4.22;2.95;;;;;;;;;;4972154;28;20034;-71
2023/01/29 14:29:01;;;;;;;4.03;2.90;;;;;;;;;;4971282;28;20026;-71
2023/01/29 14:31:28;;;;;;;4.78;3.25;;;;;;;;;;4977651;28;20483;-71
2023/01/29 14:33:59;;;;;;;3.35;2.75;;;;;;;;;;4973509;28;20023;-71
2023/01/29 14:36:26;;;;;;;3.80;3.00;;;;;;;;;;4970917;28;20026;-70
2023/01/29 14:38:52;;;;;;;3.65;3.25;;;;;;;;;;4971419;28;20053;-71
2023/01/29 14:41:21;;;;;;;4.03;3.00;;;;;;;;;;4975325;28;20034;-71
2023/01/29 14:43:47;;;;;;;3.58;2.80;;;;;;;;;;4971297;28;20786;-70
2023/01/29 14:46:33;;;;;;;6.13;3.55;;;;;;;;;;4968968;28;20037;-70
2023/01/29 14:48:59;;;;;;;5.13;4.05;;;;;;;;;;4975213;28;20045;-70
2023/01/29 14:51:27;;;;;;;6.15;3.90;;;;;;;;;;4972264;28;20026;-71
2023/01/29 14:53:58;;;;;;;4.88;3.55;;;;;;;;;;4970647;28;20520;-70
2023/01/29 14:56:27;;;;;;;6.83;4.40;;;;;;;;;;4971886;28;20026;-71
2023/01/29 14:58:56;;;;;;;6.75;4.80;;;;;;;;;;4977277;28;20130;-72
2023/01/29 15:01:25;;;;;;;4.93;4.03;;;;;;;;;;4971450;28;20034;-70
2023/01/29 15:03:53;;;;;;;5.35;4.40;;;;;;;;;;4968894;28;20027;-71
2023/01/29 15:06:42;;;;;;;5.53;4.00;;;;;;;;;;4971752;28;20050;-70
2023/01/29 15:09:17;;;;;;;6.13;4.22;;;;;;;;;;4968590;28;20038;-72
2023/01/29 15:11:48;;;;;;;5.75;4.38;;;;;;;;;;4971593;28;20026;-69
2023/01/29 15:14:22;;;;;;;6.18;4.47;;;;;;;;;;4974551;28;20860;-71
2023/01/29 15:16:48;;;;;;;7.07;4.30;;;;;;;;;;4969958;28;20028;-70
2023/01/29 15:19:26;;;;;;;11.43;3.65;;;;;;;;;;4976353;28;20022;-70
2023/01/29 15:22:12;;;;;;;7.13;3.30;;;;;;;;;;4974708;28;20027;-70
2023/01/29 15:24:39;;;;;;;5.65;3.65;;;;;;;;;;4977666;28;20030;-73
2023/01/29 15:27:06;;;;;;;8.70;3.72;;;;;;;;;;4977427;28;20561;-71
2023/01/29 15:29:33;;;;;;;6.68;3.40;;;;;;;;;;4976828;28;20030;-70
2023/01/29 15:32:00;;;;;;;4.55;3.40;;;;;;;;;;4976280;28;20038;-71